createdAt,value
2023-01-15T00:00:22.180Z,98483.19
2023-01-15T00:02:49.028Z,98475.53
2023-01-15T00:05:15.844Z,98464.00
2023-01-15T00:07:44.022Z,98464.31
2023-01-15T00:10:11.604Z,98466.69
2023-01-15T00:12:38.275Z,98467.00
2023-01-15T00:15:08.280Z,98452.81
2023-01-15T00:17:35.283Z,98456.50
2023-01-15T00:20:01.920Z,98461.16
2023-01-15T00:22:29.874Z,98459.31
2023-01-15T00:25:15.527Z,98454.63
2023-01-15T00:27:44.136Z,98451.78
2023-01-15T00:30:15.637Z,98458.81
2023-01-15T00:32:44.812Z,98458.31
2023-01-15T00:35:20.571Z,98462.16
2023-01-15T00:37:47.919Z,98448.78
2023-01-15T00:40:17.915Z,98458.31
2023-01-15T00:42:50.625Z,98459.13
2023-01-15T00:45:21.915Z,98467.94
2023-01-15T00:47:50.577Z,98466.59
2023-01-15T00:50:20.409Z,98472.47
2023-01-15T00:52:47.212Z,98476.16
2023-01-15T00:55:13.899Z,98470.16
2023-01-15T00:57:49.418Z,98478.84
2023-01-15T01:00:19.345Z,98483.69
2023-01-15T01:02:46.210Z,98479.16
2023-01-15T01:05:12.889Z,98487.84
2023-01-15T01:07:41.631Z,98475.34
2023-01-15T01:10:18.885Z,98485.06
2023-01-15T01:12:56.860Z,98478.41
2023-01-15T01:15:25.710Z,98486.88
2023-01-15T01:17:52.468Z,98484.41
2023-01-15T01:20:19.576Z,98499.44
2023-01-15T01:22:49.627Z,98488.06
2023-01-15T01:25:19.416Z,98501.78
2023-01-15T01:27:47.636Z,98503.78
2023-01-15T01:30:15.360Z,98503.94
2023-01-15T01:32:46.468Z,98503.13
2023-01-15T01:35:13.135Z,98502.31
2023-01-15T01:37:39.898Z,98504.78
2023-01-15T01:40:12.848Z,98505.94
2023-01-15T01:42:41.665Z,98518.97
2023-01-15T01:45:19.027Z,98518.63
2023-01-15T01:47:51.802Z,98511.94
2023-01-15T01:50:19.389Z,98516.44
2023-01-15T01:52:57.526Z,98510.41
2023-01-15T01:55:29.697Z,98514.41
2023-01-15T01:58:03.018Z,98515.09
2023-01-15T02:00:35.523Z,98513.22
2023-01-15T02:03:10.285Z,98523.44
2023-01-15T02:05:52.007Z,98511.25
2023-01-15T02:08:19.010Z,98515.91
2023-01-15T02:10:59.638Z,98501.88
2023-01-15T02:13:38.683Z,98512.06
2023-01-15T02:16:52.916Z,98521.56
2023-01-15T02:19:55.338Z,98514.03
2023-01-15T02:22:43.573Z,98501.34
2023-01-15T02:26:18.283Z,98513.38
2023-01-15T02:28:51.442Z,98509.69
2023-01-15T02:31:34.382Z,98498.69
2023-01-15T02:34:18.487Z,98497.19
2023-01-15T02:36:57.005Z,98496.00
2023-01-15T02:39:28.579Z,98504.69
2023-01-15T02:42:04.071Z,98490.31
2023-01-15T02:44:41.486Z,98502.03
2023-01-15T02:47:11.686Z,98508.06
2023-01-15T02:49:43.782Z,98507.88
2023-01-15T02:52:22.577Z,98509.41
2023-01-15T02:55:04.141Z,98519.41
2023-01-15T02:57:39.740Z,98503.38
2023-01-15T03:00:15.146Z,98500.03
2023-01-15T03:02:54.005Z,98506.72
2023-01-15T03:05:29.171Z,98504.69
2023-01-15T03:08:04.810Z,98512.88
2023-01-15T03:10:54.246Z,98488.34
2023-01-15T03:13:42.511Z,98495.34
2023-01-15T03:16:35.766Z,98494.88
2023-01-15T03:19:57.531Z,98488.34
2023-01-15T03:22:52.074Z,98492.16
2023-01-15T03:25:31.482Z,98497.19
2023-01-15T03:28:07.011Z,98504.69
2023-01-15T03:30:34.626Z,98490.97
2023-01-15T03:33:01.559Z,98485.63
2023-01-15T03:35:59.192Z,98481.44
2023-01-15T03:38:36.166Z,98472.06
2023-01-15T03:41:33.790Z,98462.50
2023-01-15T03:45:15.635Z,98471.53
2023-01-15T03:48:22.855Z,98453.50
2023-01-15T03:51:26.255Z,98447.88
2023-01-15T03:54:03.088Z,98445.25
2023-01-15T03:56:55.372Z,98450.25
2023-01-15T03:59:44.028Z,98439.41
2023-01-15T04:02:18.005Z,98446.41
2023-01-15T04:04:48.296Z,98447.09
2023-01-15T04:07:18.429Z,98451.09
2023-01-15T04:09:45.417Z,98435.06
2023-01-15T04:12:15.033Z,98430.38
2023-01-15T04:14:42.020Z,98442.47
2023-01-15T04:17:09.193Z,98445.00
2023-01-15T04:19:36.303Z,98434.47
2023-01-15T04:22:03.285Z,98436.47
2023-01-15T04:24:30.080Z,98431.94
2023-01-15T04:26:56.799Z,98434.59
2023-01-15T04:29:23.764Z,98447.81
2023-01-15T04:31:53.577Z,98435.97
2023-01-15T04:34:20.264Z,98428.16
2023-01-15T04:36:48.030Z,98437.81
2023-01-15T04:39:15.024Z,98435.44
2023-01-15T04:42:01.645Z,98430.44
2023-01-15T04:44:29.302Z,98429.13
2023-01-15T04:46:57.524Z,98420.56
2023-01-15T04:49:24.207Z,98429.97
2023-01-15T04:51:53.766Z,98420.47
2023-01-15T04:54:22.512Z,98401.28
2023-01-15T04:56:54.583Z,98398.75
2023-01-15T04:59:27.151Z,98413.44
2023-01-15T05:02:03.931Z,98413.44
2023-01-15T05:04:33.506Z,98420.28
2023-01-15T05:07:05.280Z,98427.28
2023-01-15T05:09:32.512Z,98427.25
2023-01-15T05:11:59.309Z,98416.72
2023-01-15T05:14:26.122Z,98428.25
2023-01-15T05:16:52.860Z,98426.19
2023-01-15T05:19:19.838Z,98419.38
2023-01-15T05:21:46.675Z,98417.53
2023-01-15T05:24:17.631Z,98416.72
2023-01-15T05:26:45.496Z,98412.03
2023-01-15T05:29:13.662Z,98408.19
2023-01-15T05:31:45.187Z,98373.94
2023-01-15T05:34:13.368Z,98413.31
2023-01-15T05:36:41.223Z,98416.84
2023-01-15T05:39:07.981Z,98415.53
2023-01-15T05:41:50.349Z,98414.41
2023-01-15T05:44:26.567Z,98417.25
2023-01-15T05:47:00.282Z,98422.28
2023-01-15T05:49:31.184Z,98414.59
2023-01-15T05:52:00.709Z,98412.41
2023-01-15T05:54:35.002Z,98431.66
2023-01-15T05:57:04.849Z,98425.63
2023-01-15T05:59:33.464Z,98423.84
2023-01-15T06:02:00.481Z,98416.13
2023-01-15T06:04:27.394Z,98429.34
2023-01-15T06:06:56.491Z,98423.47
2023-01-15T06:09:24.798Z,98416.97
2023-01-15T06:11:54.050Z,98422.81
2023-01-15T06:14:23.623Z,98402.09
2023-01-15T06:16:50.719Z,98412.78
2023-01-15T06:19:20.752Z,98415.91
2023-01-15T06:21:49.116Z,98413.22
2023-01-15T06:24:17.297Z,98419.03
2023-01-15T06:26:44.231Z,98414.88
2023-01-15T06:29:13.377Z,98408.88
2023-01-15T06:31:42.754Z,98417.03
2023-01-15T06:34:09.410Z,98414.69
2023-01-15T06:36:36.483Z,98420.50
2023-01-15T06:39:08.625Z,98433.25
2023-01-15T06:41:53.815Z,98427.06
2023-01-15T06:44:41.083Z,98425.03
2023-01-15T06:47:20.773Z,98414.31
2023-01-15T06:49:57.807Z,98419.97
2023-01-15T06:52:28.509Z,98412.97
2023-01-15T06:54:55.523Z,98411.13
2023-01-15T06:57:22.588Z,98413.13
2023-01-15T06:59:50.504Z,98404.81
2023-01-15T07:02:18.214Z,98414.69
2023-01-15T07:04:46.908Z,98413.00
2023-01-15T07:07:23.122Z,98409.66
2023-01-15T07:09:50.599Z,98407.00
2023-01-15T07:12:20.019Z,98406.53
2023-01-15T07:14:47.657Z,98396.88
2023-01-15T07:17:17.472Z,98405.66
2023-01-15T07:19:46.863Z,98397.78
2023-01-15T07:22:18.631Z,98409.66
2023-01-15T07:24:45.341Z,98407.06
2023-01-15T07:27:12.071Z,98413.88
2023-01-15T07:29:53.842Z,98413.22
2023-01-15T07:32:20.581Z,98418.22
2023-01-15T07:34:49.737Z,98425.38
2023-01-15T07:37:16.629Z,98413.06
2023-01-15T08:43:48.260Z,98415.19
2023-01-15T08:46:15.154Z,98403.31
2023-01-15T08:48:41.916Z,98403.31
2023-01-15T08:51:14.693Z,98427.16
2023-01-15T08:53:41.811Z,98407.28
2023-01-15T08:56:20.600Z,98421.97
2023-01-15T08:58:48.712Z,98411.81
2023-01-15T09:04:00.893Z,98413.78
2023-01-15T09:45:25.885Z,98419.38
2023-01-15T09:48:16.233Z,98412.19
2023-01-15T09:51:03.043Z,98408.31
2023-01-15T10:46:38.044Z,98348.19
2023-01-15T10:49:15.925Z,98354.59
2023-01-15T10:51:54.655Z,98344.19
2023-01-15T10:55:22.910Z,98343.94
2023-01-15T10:58:10.691Z,98348.69
2023-01-15T11:00:42.470Z,98338.91
2023-01-15T11:03:39.514Z,98343.88
2023-01-15T11:06:16.657Z,98332.44
2023-01-15T11:09:09.206Z,98323.56
2023-01-15T11:12:00.179Z,98331.81
2023-01-15T11:15:01.697Z,98319.97
2023-01-15T11:17:59.735Z,98303.31
2023-01-15T11:20:50.902Z,98289.00
2023-01-15T11:23:23.166Z,98302.75
2023-01-15T11:25:59.692Z,98295.66
2023-01-15T11:28:43.182Z,98311.91
2023-01-15T11:31:13.694Z,98303.66
2023-01-15T11:34:01.282Z,98301.94
2023-01-15T11:36:31.638Z,98284.63
2023-01-15T11:38:59.564Z,98302.84
2023-01-15T11:41:55.802Z,98286.31
2023-01-15T11:44:42.415Z,98294.34
2023-01-15T11:47:37.845Z,98278.34
2023-01-15T11:50:40.620Z,98285.19
2023-01-15T12:15:54.998Z,98251.94
2023-01-15T12:18:56.974Z,98237.38
2023-01-15T13:13:43.913Z,98165.22
2023-01-15T13:16:34.065Z,98152.22
2023-01-15T14:57:07.570Z,98133.22
2023-01-15T16:03:33.524Z,98227.28
2023-01-15T16:06:08.058Z,98253.97
2023-01-15T16:08:36.266Z,98245.59
2023-01-15T16:11:13.962Z,98251.59
2023-01-15T16:13:48.018Z,98257.78
2023-01-15T16:16:19.103Z,98265.78
2023-01-15T16:18:52.153Z,98270.94
2023-01-15T16:21:44.613Z,98271.63
2023-01-15T16:24:29.472Z,98265.78
2023-01-15T16:27:11.197Z,98273.94
2023-01-15T16:29:38.278Z,98272.94
2023-01-15T16:32:22.231Z,98262.75
2023-01-15T16:34:50.233Z,98281.78
2023-01-15T16:37:30.965Z,98291.63
2023-01-15T16:40:03.754Z,98298.94
2023-01-15T16:42:40.061Z,98285.09
2023-01-15T16:45:26.006Z,98301.81
2023-01-15T16:48:38.232Z,98305.31
2023-01-15T16:51:36.218Z,98305.28
2023-01-15T16:54:29.055Z,98314.25
2023-01-15T16:57:26.848Z,98310.59
2023-01-15T17:00:07.615Z,98303.94
2023-01-15T17:02:47.875Z,98327.59
2023-01-15T17:05:29.243Z,98319.75
2023-01-15T17:07:57.343Z,98329.75
2023-01-15T17:10:29.674Z,98341.41
2023-01-15T17:12:56.492Z,98344.25
2023-01-15T17:15:26.098Z,98340.94
2023-01-15T17:17:56.374Z,98345.94
2023-01-15T17:20:27.948Z,98344.78
2023-01-15T17:22:56.348Z,98343.25
2023-01-15T17:25:30.815Z,98335.94
2023-01-15T17:28:00.500Z,98329.44
2023-01-15T17:30:33.426Z,98351.28
2023-01-15T17:33:10.176Z,98360.31
2023-01-15T18:33:56.117Z,98463.16
2023-01-15T19:34:33.598Z,98558.00
2023-01-15T22:24:32.401Z,98709.00
2023-01-15T22:51:05.304Z,98723.47
2023-01-15T23:15:14.203Z,98715.03
2023-01-15T23:25:46.024Z,98725.94
2023-01-15T23:28:12.608Z,98729.88
2023-01-15T23:30:42.374Z,98737.41
2023-01-15T23:33:09.651Z,98736.63
2023-01-15T23:35:36.409Z,98736.13
2023-01-15T23:38:03.170Z,98728.28
2023-01-15T23:40:32.521Z,98738.00
2023-01-15T23:43:17.652Z,98739.84
2023-01-15T23:46:02.903Z,98734.97
2023-01-15T23:48:32.936Z,98733.13
2023-01-15T23:50:59.576Z,98736.56
2023-01-15T23:53:26.297Z,98737.31
2023-01-15T23:55:53.173Z,98745.53
2023-01-15T23:58:19.886Z,98742.56
